UKV3284 CYWG-CYQR
Flight info
| Callsign | UKV3284 |
|---|---|
| Flight time | 0h 57m |
| Altitude | 38000 |
| Route | LIVBI DCT DUKPO DCT FAREN DCT EMLIK DCT KEMKA KEMKA6 |
| Aircraft | A320/M-SDE3FGHIRWY/LB1 |
Departure
| Time | 2026-05-07 14:40 |
|---|---|
| Airport | Winnipeg / James Armstrong Richardson International Airport (CYWG) |
Arrival
| Time | 2026-05-07 15:37 |
|---|---|
| Airport | Regina International Airport (CYQR) |
| Time | Latitude | Longitude | Altitude | Speed | Heading |
|---|---|---|---|---|---|
| 2026-05-07 14:12 | 49.90676 | -97.22412 | 785 ft | 0 kts | 180° |
| 2026-05-07 14:28 | 49.90691 | -97.22413 | 784 ft | 4 kts | 166° |
| 2026-05-07 14:28 | 49.90717 | -97.22421 | 784 ft | 4 kts | 173° |
| 2026-05-07 14:28 | 49.90743 | -97.22425 | 783 ft | 2 kts | 176° |
| 2026-05-07 14:29 | 49.90745 | -97.22425 | 783 ft | 0 kts | 176° |
| 2026-05-07 14:33 | 49.90743 | -97.22447 | 783 ft | 5 kts | 285° |
| 2026-05-07 14:33 | 49.90754 | -97.22502 | 783 ft | 10 kts | 287° |
| 2026-05-07 14:33 | 49.90748 | -97.22667 | 782 ft | 18 kts | 258° |
| 2026-05-07 14:33 | 49.90713 | -97.22859 | 783 ft | 19 kts | 237° |
| 2026-05-07 14:34 | 49.90593 | -97.22921 | 783 ft | 20 kts | 163° |
| 2026-05-07 14:34 | 49.90460 | -97.22894 | 785 ft | 20 kts | 194° |
| 2026-05-07 14:34 | 49.90323 | -97.22963 | 785 ft | 21 kts | 199° |
| 2026-05-07 14:34 | 49.90199 | -97.23037 | 786 ft | 17 kts | 223° |
| 2026-05-07 14:35 | 49.90153 | -97.23187 | 789 ft | 15 kts | 219° |
| 2026-05-07 14:35 | 49.90075 | -97.23136 | 789 ft | 13 kts | 137° |
| 2026-05-07 14:35 | 49.89984 | -97.23012 | 786 ft | 20 kts | 139° |
| 2026-05-07 14:35 | 49.89874 | -97.22855 | 785 ft | 23 kts | 131° |
| 2026-05-07 14:36 | 49.89772 | -97.22656 | 786 ft | 24 kts | 130° |
| 2026-05-07 14:36 | 49.89685 | -97.22554 | 786 ft | 13 kts | 206° |
| 2026-05-07 14:36 | 49.89619 | -97.22644 | 785 ft | 12 kts | 227° |
| 2026-05-07 14:36 | 49.89532 | -97.22796 | 783 ft | 27 kts | 227° |
| 2026-05-07 14:37 | 49.89488 | -97.22988 | 781 ft | 17 kts | 279° |
| 2026-05-07 14:37 | 49.89520 | -97.23407 | 781 ft | 21 kts | 277° |
| 2026-05-07 14:37 | 49.89536 | -97.23639 | 783 ft | 22 kts | 277° |
| 2026-05-07 14:38 | 49.89555 | -97.23869 | 788 ft | 21 kts | 278° |
| 2026-05-07 14:38 | 49.89571 | -97.24080 | 790 ft | 19 kts | 276° |
| 2026-05-07 14:38 | 49.89594 | -97.24188 | 791 ft | 4 kts | 8° |
| 2026-05-07 14:38 | 49.89597 | -97.24186 | 791 ft | 0 kts | 14° |
| 2026-05-07 14:39 | 49.89605 | -97.24184 | 791 ft | 7 kts | 13° |
| 2026-05-07 14:39 | 49.89893 | -97.24107 | 786 ft | 80 kts | 8° |
| 2026-05-07 14:39 | 49.90660 | -97.23931 | 791 ft | 140 kts | 8° |
| 2026-05-07 14:39 | 49.91749 | -97.23685 | 1099 ft | 161 kts | 8° |
| 2026-05-07 14:40 | 49.92857 | -97.23439 | 1938 ft | 161 kts | 7° |
| 2026-05-07 14:40 | 49.93963 | -97.23178 | 2693 ft | 164 kts | 6° |
| 2026-05-07 14:40 | 49.95163 | -97.22897 | 3109 ft | 185 kts | 6° |
| 2026-05-07 14:40 | 49.96501 | -97.22583 | 3477 ft | 210 kts | 6° |
| 2026-05-07 14:41 | 49.98030 | -97.22226 | 3997 ft | 235 kts | 5° |
| 2026-05-07 14:41 | 49.99713 | -97.21840 | 4652 ft | 251 kts | 5° |
| 2026-05-07 14:41 | 50.01459 | -97.21432 | 5626 ft | 256 kts | 4° |
| 2026-05-07 14:41 | 50.03229 | -97.21481 | 6776 ft | 254 kts | 343° |
| 2026-05-07 14:42 | 50.04820 | -97.22604 | 7792 ft | 252 kts | 322° |
| 2026-05-07 14:42 | 50.05976 | -97.24651 | 8793 ft | 256 kts | 300° |
| 2026-05-07 14:42 | 50.06503 | -97.27320 | 9767 ft | 264 kts | 278° |
| 2026-05-07 14:42 | 50.06250 | -97.30201 | 10621 ft | 278 kts | 255° |
| 2026-05-07 14:43 | 50.05432 | -97.33073 | 11032 ft | 303 kts | 250° |
| 2026-05-07 14:43 | 50.04494 | -97.36117 | 11515 ft | 319 kts | 249° |
| 2026-05-07 14:43 | 50.03502 | -97.39250 | 12292 ft | 326 kts | 249° |
| 2026-05-07 14:43 | 50.02504 | -97.42388 | 13060 ft | 331 kts | 250° |
| 2026-05-07 14:44 | 50.01476 | -97.45634 | 13833 ft | 336 kts | 250° |
| 2026-05-07 14:44 | 50.00441 | -97.48922 | 14516 ft | 341 kts | 250° |
| 2026-05-07 14:44 | 49.99395 | -97.52255 | 15207 ft | 345 kts | 251° |
| 2026-05-07 14:44 | 49.98342 | -97.55625 | 15895 ft | 349 kts | 251° |
| 2026-05-07 14:45 | 49.97277 | -97.59041 | 16570 ft | 353 kts | 251° |
| 2026-05-07 14:45 | 49.96199 | -97.62486 | 17250 ft | 357 kts | 251° |
| 2026-05-07 14:45 | 49.95108 | -97.65966 | 17915 ft | 361 kts | 251° |
| 2026-05-07 14:45 | 49.94001 | -97.69488 | 18535 ft | 365 kts | 251° |
| 2026-05-07 14:46 | 49.93048 | -97.73122 | 19110 ft | 361 kts | 261° |
| 2026-05-07 14:46 | 49.92565 | -97.76870 | 19680 ft | 356 kts | 271° |
| 2026-05-07 14:46 | 49.92555 | -97.80736 | 20272 ft | 352 kts | 282° |
| 2026-05-07 14:46 | 49.92960 | -97.84403 | 20848 ft | 351 kts | 287° |
| 2026-05-07 14:47 | 49.93444 | -97.88137 | 21431 ft | 354 kts | 287° |
| 2026-05-07 14:47 | 49.93922 | -97.91906 | 22019 ft | 357 kts | 287° |
| 2026-05-07 14:47 | 49.94398 | -97.95709 | 22612 ft | 361 kts | 286° |
| 2026-05-07 14:47 | 49.94876 | -97.99553 | 23196 ft | 364 kts | 286° |
| 2026-05-07 14:48 | 49.95354 | -98.03428 | 23743 ft | 367 kts | 286° |
| 2026-05-07 14:48 | 49.95835 | -98.07333 | 24212 ft | 369 kts | 286° |
| 2026-05-07 14:48 | 49.96317 | -98.11259 | 24707 ft | 371 kts | 287° |
| 2026-05-07 14:48 | 49.96797 | -98.15201 | 25194 ft | 372 kts | 287° |
| 2026-05-07 14:49 | 49.97277 | -98.19163 | 25665 ft | 374 kts | 287° |
| 2026-05-07 14:49 | 49.97755 | -98.23095 | 26130 ft | 376 kts | 287° |
| 2026-05-07 14:49 | 49.98244 | -98.27092 | 26581 ft | 377 kts | 288° |
| 2026-05-07 14:49 | 49.98737 | -98.31106 | 27017 ft | 379 kts | 288° |
| 2026-05-07 14:50 | 49.99228 | -98.35135 | 27450 ft | 380 kts | 288° |
| 2026-05-07 14:50 | 49.99716 | -98.39184 | 27876 ft | 382 kts | 288° |
| 2026-05-07 14:50 | 50.00205 | -98.43247 | 28301 ft | 384 kts | 288° |
| 2026-05-07 14:50 | 50.00694 | -98.47332 | 28715 ft | 385 kts | 289° |
| 2026-05-07 14:51 | 50.01182 | -98.51429 | 29126 ft | 387 kts | 289° |
| 2026-05-07 14:51 | 50.01673 | -98.55552 | 29521 ft | 388 kts | 289° |
| 2026-05-07 14:51 | 50.02165 | -98.59685 | 29904 ft | 390 kts | 289° |
| 2026-05-07 14:51 | 50.02660 | -98.63833 | 30242 ft | 391 kts | 289° |
| 2026-05-07 14:52 | 50.03158 | -98.68001 | 30533 ft | 393 kts | 289° |
| 2026-05-07 14:52 | 50.03658 | -98.72199 | 30804 ft | 395 kts | 289° |
| 2026-05-07 14:52 | 50.04155 | -98.76414 | 31067 ft | 398 kts | 289° |
| 2026-05-07 14:52 | 50.04648 | -98.80655 | 31325 ft | 400 kts | 289° |
| 2026-05-07 14:53 | 50.05141 | -98.84921 | 31584 ft | 401 kts | 288° |
| 2026-05-07 14:53 | 50.05631 | -98.89191 | 31937 ft | 401 kts | 288° |
| 2026-05-07 14:53 | 50.06122 | -98.93463 | 32299 ft | 400 kts | 288° |
| 2026-05-07 14:53 | 50.06611 | -98.97720 | 32658 ft | 399 kts | 288° |
| 2026-05-07 14:54 | 50.07100 | -99.01970 | 33015 ft | 399 kts | 288° |
| 2026-05-07 14:54 | 50.07581 | -99.06161 | 33370 ft | 398 kts | 288° |
| 2026-05-07 14:54 | 50.08068 | -99.10407 | 33719 ft | 398 kts | 288° |
| 2026-05-07 14:54 | 50.08553 | -99.14635 | 34076 ft | 397 kts | 288° |
| 2026-05-07 14:55 | 50.09037 | -99.18868 | 34356 ft | 397 kts | 288° |
| 2026-05-07 14:55 | 50.09516 | -99.23099 | 34602 ft | 398 kts | 287° |
| 2026-05-07 14:55 | 50.09994 | -99.27353 | 34843 ft | 398 kts | 287° |
| 2026-05-07 14:55 | 50.10471 | -99.31605 | 35069 ft | 399 kts | 287° |
| 2026-05-07 14:56 | 50.10949 | -99.35872 | 35290 ft | 400 kts | 287° |
| 2026-05-07 14:56 | 50.11426 | -99.40147 | 35521 ft | 401 kts | 287° |
| 2026-05-07 14:56 | 50.11901 | -99.44436 | 35725 ft | 402 kts | 286° |
| 2026-05-07 14:56 | 50.12377 | -99.48730 | 35937 ft | 403 kts | 286° |
| 2026-05-07 14:57 | 50.12854 | -99.53032 | 36140 ft | 403 kts | 286° |
| 2026-05-07 14:57 | 50.13329 | -99.57348 | 36336 ft | 404 kts | 286° |
| 2026-05-07 14:57 | 50.13807 | -99.61676 | 36529 ft | 405 kts | 285° |
| 2026-05-07 14:57 | 50.14286 | -99.66005 | 36719 ft | 406 kts | 285° |
| 2026-05-07 14:58 | 50.14765 | -99.70351 | 36902 ft | 407 kts | 285° |
| 2026-05-07 14:58 | 50.15237 | -99.74697 | 37087 ft | 407 kts | 285° |
| 2026-05-07 14:58 | 50.15700 | -99.79001 | 37267 ft | 408 kts | 285° |
| 2026-05-07 14:58 | 50.16170 | -99.83367 | 37443 ft | 409 kts | 285° |
| 2026-05-07 14:59 | 50.16638 | -99.87757 | 37616 ft | 410 kts | 284° |
| 2026-05-07 14:59 | 50.17065 | -99.92156 | 37782 ft | 411 kts | 283° |
| 2026-05-07 14:59 | 50.17448 | -99.96591 | 37934 ft | 413 kts | 282° |
| 2026-05-07 14:59 | 50.17803 | -100.01030 | 37958 ft | 413 kts | 282° |
| 2026-05-07 15:00 | 50.18493 | -100.09905 | 37963 ft | 412 kts | 282° |
| 2026-05-07 15:00 | 50.19203 | -100.18778 | 37964 ft | 411 kts | 282° |
| 2026-05-07 15:01 | 50.19926 | -100.27624 | 37969 ft | 411 kts | 282° |
| 2026-05-07 15:01 | 50.20642 | -100.36480 | 37974 ft | 411 kts | 282° |
| 2026-05-07 15:02 | 50.21358 | -100.45327 | 37967 ft | 411 kts | 282° |
| 2026-05-07 15:02 | 50.22063 | -100.54194 | 37970 ft | 411 kts | 282° |
| 2026-05-07 15:03 | 50.22751 | -100.63068 | 37973 ft | 411 kts | 282° |
| 2026-05-07 15:03 | 50.23438 | -100.71944 | 37973 ft | 411 kts | 282° |
| 2026-05-07 15:04 | 50.24121 | -100.80820 | 37982 ft | 411 kts | 282° |
| 2026-05-07 15:04 | 50.24791 | -100.89692 | 37981 ft | 411 kts | 282° |
| 2026-05-07 15:05 | 50.25455 | -100.98572 | 37984 ft | 411 kts | 282° |
| 2026-05-07 15:05 | 50.26118 | -101.07445 | 37985 ft | 411 kts | 282° |
| 2026-05-07 15:06 | 50.26776 | -101.16333 | 37987 ft | 412 kts | 281° |
| 2026-05-07 15:06 | 50.27414 | -101.25232 | 37982 ft | 412 kts | 281° |
| 2026-05-07 15:07 | 50.28054 | -101.34131 | 37985 ft | 412 kts | 281° |
| 2026-05-07 15:07 | 50.28689 | -101.43023 | 37984 ft | 412 kts | 281° |
| 2026-05-07 15:08 | 50.29318 | -101.51930 | 37979 ft | 412 kts | 281° |
| 2026-05-07 15:08 | 50.29937 | -101.60848 | 37978 ft | 412 kts | 281° |
| 2026-05-07 15:09 | 50.30545 | -101.69713 | 37973 ft | 413 kts | 281° |
| 2026-05-07 15:09 | 50.31152 | -101.78643 | 37971 ft | 413 kts | 281° |
| 2026-05-07 15:10 | 50.31758 | -101.87573 | 37960 ft | 413 kts | 281° |
| 2026-05-07 15:10 | 50.32063 | -101.92051 | 37683 ft | 413 kts | 281° |
| 2026-05-07 15:10 | 50.32362 | -101.96520 | 37304 ft | 411 kts | 281° |
| 2026-05-07 15:11 | 50.32652 | -102.00938 | 36852 ft | 406 kts | 281° |
| 2026-05-07 15:11 | 50.32931 | -102.05312 | 36380 ft | 401 kts | 281° |
| 2026-05-07 15:11 | 50.33204 | -102.09624 | 35919 ft | 397 kts | 281° |
| 2026-05-07 15:11 | 50.33477 | -102.13896 | 35452 ft | 392 kts | 281° |
| 2026-05-07 15:12 | 50.33749 | -102.18126 | 34980 ft | 388 kts | 282° |
| 2026-05-07 15:12 | 50.34017 | -102.22312 | 34512 ft | 385 kts | 282° |
| 2026-05-07 15:12 | 50.34283 | -102.26452 | 34052 ft | 381 kts | 282° |
| 2026-05-07 15:12 | 50.34547 | -102.30571 | 33543 ft | 377 kts | 282° |
| 2026-05-07 15:13 | 50.34806 | -102.34634 | 33093 ft | 372 kts | 282° |
| 2026-05-07 15:13 | 50.35059 | -102.38641 | 32648 ft | 368 kts | 282° |
| 2026-05-07 15:13 | 50.35303 | -102.42610 | 32208 ft | 364 kts | 282° |
| 2026-05-07 15:13 | 50.35544 | -102.46534 | 31776 ft | 360 kts | 282° |
| 2026-05-07 15:14 | 50.35781 | -102.50415 | 31347 ft | 357 kts | 282° |
| 2026-05-07 15:14 | 50.36004 | -102.54279 | 30882 ft | 355 kts | 281° |
| 2026-05-07 15:14 | 50.36214 | -102.58119 | 30429 ft | 353 kts | 281° |
| 2026-05-07 15:14 | 50.36414 | -102.61889 | 29991 ft | 351 kts | 281° |
| 2026-05-07 15:15 | 50.36616 | -102.65687 | 29517 ft | 348 kts | 281° |
| 2026-05-07 15:15 | 50.36815 | -102.69448 | 29092 ft | 344 kts | 281° |
| 2026-05-07 15:15 | 50.37009 | -102.73154 | 28679 ft | 340 kts | 281° |
| 2026-05-07 15:15 | 50.37201 | -102.76830 | 28272 ft | 336 kts | 281° |
| 2026-05-07 15:16 | 50.37393 | -102.80457 | 27866 ft | 332 kts | 281° |
| 2026-05-07 15:16 | 50.37582 | -102.84048 | 27468 ft | 329 kts | 280° |
| 2026-05-07 15:16 | 50.37705 | -102.86410 | 27197 ft | 326 kts | 280° |
| 2026-05-07 15:16 | 50.37887 | -102.89937 | 26783 ft | 323 kts | 280° |
| 2026-05-07 15:17 | 50.38067 | -102.93429 | 26378 ft | 320 kts | 280° |
| 2026-05-07 15:17 | 50.38241 | -102.96896 | 25954 ft | 318 kts | 280° |
| 2026-05-07 15:17 | 50.38414 | -103.00341 | 25533 ft | 316 kts | 280° |
| 2026-05-07 15:17 | 50.38588 | -103.03764 | 25110 ft | 314 kts | 280° |
| 2026-05-07 15:18 | 50.38758 | -103.07174 | 24681 ft | 313 kts | 279° |
| 2026-05-07 15:18 | 50.38928 | -103.10572 | 24250 ft | 313 kts | 279° |
| 2026-05-07 15:18 | 50.39100 | -103.13967 | 23807 ft | 312 kts | 279° |
| 2026-05-07 15:18 | 50.39270 | -103.17352 | 23336 ft | 312 kts | 279° |
| 2026-05-07 15:19 | 50.39436 | -103.20742 | 22873 ft | 310 kts | 279° |
| 2026-05-07 15:19 | 50.39601 | -103.24101 | 22437 ft | 308 kts | 279° |
| 2026-05-07 15:19 | 50.39765 | -103.27438 | 22020 ft | 306 kts | 279° |
| 2026-05-07 15:19 | 50.39926 | -103.30755 | 21603 ft | 305 kts | 279° |
| 2026-05-07 15:20 | 50.40136 | -103.35131 | 21053 ft | 303 kts | 279° |
| 2026-05-07 15:20 | 50.40240 | -103.37315 | 20777 ft | 302 kts | 279° |
| 2026-05-07 15:20 | 50.40394 | -103.40591 | 20371 ft | 301 kts | 279° |
| 2026-05-07 15:20 | 50.40547 | -103.43861 | 19964 ft | 300 kts | 279° |
| 2026-05-07 15:21 | 50.40701 | -103.47129 | 19561 ft | 300 kts | 279° |
| 2026-05-07 15:21 | 50.40852 | -103.50394 | 19157 ft | 300 kts | 279° |
| 2026-05-07 15:21 | 50.41001 | -103.53648 | 18752 ft | 300 kts | 279° |
| 2026-05-07 15:21 | 50.41149 | -103.56916 | 18353 ft | 300 kts | 279° |
| 2026-05-07 15:22 | 50.41298 | -103.60184 | 17915 ft | 301 kts | 279° |
| 2026-05-07 15:22 | 50.41449 | -103.63446 | 17511 ft | 299 kts | 279° |
| 2026-05-07 15:22 | 50.41599 | -103.66687 | 17118 ft | 297 kts | 279° |
| 2026-05-07 15:22 | 50.41744 | -103.69922 | 16750 ft | 295 kts | 279° |
| 2026-05-07 15:23 | 50.41885 | -103.73124 | 16399 ft | 294 kts | 279° |
| 2026-05-07 15:23 | 50.42023 | -103.76312 | 16029 ft | 293 kts | 279° |
| 2026-05-07 15:23 | 50.42160 | -103.79494 | 15650 ft | 292 kts | 279° |
| 2026-05-07 15:23 | 50.42295 | -103.82665 | 15277 ft | 291 kts | 279° |
| 2026-05-07 15:24 | 50.42429 | -103.85836 | 14904 ft | 291 kts | 279° |
| 2026-05-07 15:24 | 50.42574 | -103.88996 | 14540 ft | 289 kts | 282° |
| 2026-05-07 15:24 | 50.42961 | -103.92064 | 14174 ft | 286 kts | 287° |
| 2026-05-07 15:24 | 50.43390 | -103.95111 | 13800 ft | 286 kts | 287° |
| 2026-05-07 15:25 | 50.43816 | -103.98159 | 13406 ft | 285 kts | 287° |
| 2026-05-07 15:25 | 50.44237 | -104.01197 | 13030 ft | 284 kts | 287° |
| 2026-05-07 15:25 | 50.44654 | -104.04215 | 12662 ft | 282 kts | 287° |
| 2026-05-07 15:25 | 50.45067 | -104.07222 | 12290 ft | 281 kts | 286° |
| 2026-05-07 15:26 | 50.45476 | -104.10216 | 11917 ft | 280 kts | 286° |
| 2026-05-07 15:26 | 50.45882 | -104.13196 | 11536 ft | 279 kts | 286° |
| 2026-05-07 15:26 | 50.46289 | -104.16169 | 11158 ft | 278 kts | 286° |
| 2026-05-07 15:26 | 50.46689 | -104.19093 | 10782 ft | 277 kts | 286° |
| 2026-05-07 15:27 | 50.47091 | -104.22049 | 10404 ft | 276 kts | 286° |
| 2026-05-07 15:27 | 50.47492 | -104.24996 | 10012 ft | 276 kts | 285° |
| 2026-05-07 15:27 | 50.47893 | -104.27945 | 9632 ft | 274 kts | 285° |
| 2026-05-07 15:27 | 50.48289 | -104.30877 | 9173 ft | 274 kts | 285° |
| 2026-05-07 15:28 | 50.48683 | -104.33807 | 8763 ft | 273 kts | 285° |
| 2026-05-07 15:28 | 50.49074 | -104.36720 | 8359 ft | 271 kts | 284° |
| 2026-05-07 15:28 | 50.49460 | -104.39614 | 7931 ft | 270 kts | 284° |
| 2026-05-07 15:28 | 50.49847 | -104.42496 | 7512 ft | 269 kts | 284° |
| 2026-05-07 15:29 | 50.50233 | -104.45374 | 7079 ft | 269 kts | 284° |
| 2026-05-07 15:29 | 50.50618 | -104.48247 | 6640 ft | 269 kts | 283° |
| 2026-05-07 15:29 | 50.50993 | -104.51075 | 6363 ft | 263 kts | 283° |
| 2026-05-07 15:29 | 50.51360 | -104.53838 | 6297 ft | 248 kts | 283° |
| 2026-05-07 15:30 | 50.51703 | -104.56420 | 6200 ft | 235 kts | 283° |
| 2026-05-07 15:30 | 50.52024 | -104.58831 | 6105 ft | 223 kts | 283° |
| 2026-05-07 15:30 | 50.52493 | -104.61094 | 6010 ft | 216 kts | 300° |
| 2026-05-07 15:30 | 50.53405 | -104.62946 | 5866 ft | 215 kts | 318° |
| 2026-05-07 15:31 | 50.54523 | -104.64508 | 5727 ft | 215 kts | 318° |
| 2026-05-07 15:31 | 50.55636 | -104.66076 | 5573 ft | 215 kts | 318° |
| 2026-05-07 15:31 | 50.56748 | -104.67648 | 5444 ft | 215 kts | 317° |
| 2026-05-07 15:31 | 50.57860 | -104.69221 | 5301 ft | 215 kts | 317° |
| 2026-05-07 15:32 | 50.58969 | -104.70790 | 5158 ft | 215 kts | 317° |
| 2026-05-07 15:32 | 50.60079 | -104.72365 | 5013 ft | 214 kts | 315° |
| 2026-05-07 15:32 | 50.60859 | -104.74313 | 4870 ft | 212 kts | 283° |
| 2026-05-07 15:32 | 50.60811 | -104.76568 | 4725 ft | 206 kts | 250° |
| 2026-05-07 15:33 | 50.60034 | -104.78419 | 4569 ft | 202 kts | 229° |
| 2026-05-07 15:33 | 50.59098 | -104.80027 | 4430 ft | 197 kts | 229° |
| 2026-05-07 15:33 | 50.58067 | -104.81409 | 4320 ft | 196 kts | 211° |
| 2026-05-07 15:33 | 50.56834 | -104.82143 | 4271 ft | 186 kts | 192° |
| 2026-05-07 15:34 | 50.55554 | -104.82198 | 4125 ft | 184 kts | 173° |
| 2026-05-07 15:34 | 50.54342 | -104.81592 | 4038 ft | 183 kts | 154° |
| 2026-05-07 15:34 | 50.53315 | -104.80405 | 4007 ft | 184 kts | 139° |
| 2026-05-07 15:34 | 50.52366 | -104.79056 | 4008 ft | 185 kts | 139° |
| 2026-05-07 15:35 | 50.51414 | -104.77703 | 3907 ft | 184 kts | 139° |
| 2026-05-07 15:35 | 50.50466 | -104.76359 | 3702 ft | 183 kts | 139° |
| 2026-05-07 15:35 | 50.49522 | -104.75020 | 3466 ft | 182 kts | 139° |
| 2026-05-07 15:35 | 50.48621 | -104.73744 | 3235 ft | 167 kts | 140° |
| 2026-05-07 15:36 | 50.47795 | -104.72574 | 2990 ft | 154 kts | 140° |
| 2026-05-07 15:36 | 50.47019 | -104.71478 | 2765 ft | 146 kts | 140° |
| 2026-05-07 15:36 | 50.46282 | -104.70443 | 2550 ft | 142 kts | 140° |
| 2026-05-07 15:36 | 50.45548 | -104.69388 | 2332 ft | 140 kts | 140° |
| 2026-05-07 15:37 | 50.44831 | -104.68391 | 2166 ft | 139 kts | 140° |
| 2026-05-07 15:37 | 50.44111 | -104.67368 | 1977 ft | 139 kts | 140° |
| 2026-05-07 15:37 | 50.43426 | -104.66404 | 1895 ft | 114 kts | 137° |
| 2026-05-07 15:37 | 50.43056 | -104.65878 | 1904 ft | 38 kts | 138° |
| 2026-05-07 15:38 | 50.42959 | -104.65699 | 1894 ft | 17 kts | 84° |
| 2026-05-07 15:38 | 50.43029 | -104.65632 | 1900 ft | 7 kts | 11° |
| 2026-05-07 15:38 | 50.43057 | -104.65619 | 1898 ft | 0 kts | 30° |
| 2026-05-07 15:39 | 50.43114 | -104.65601 | 1899 ft | 12 kts | 338° |
| 2026-05-07 15:39 | 50.43178 | -104.65684 | 1902 ft | 12 kts | 316° |
| 2026-05-07 15:39 | 50.43245 | -104.65754 | 1899 ft | 10 kts | 7° |
| 2026-05-07 15:40 | 50.43253 | -104.65746 | 1897 ft | 0 kts | 33° |
| 2026-05-07 15:40 | 50.43293 | -104.65684 | 1896 ft | 12 kts | 50° |
| 2026-05-07 15:40 | 50.43307 | -104.65656 | 1897 ft | 0 kts | 49° |